Time;durP1;ratioP1;P1;durP2;ratioP2;P2;SDS_P1;SDS_P2;PMS_P1;PMS_P2;Temp;Humidity;BMP_temperature;BMP_pressure;BME280_temperature;BME280_humidity;BME280_pressure;Samples;Min_cycle;Max_cycle;Signal;HPM_P1;HPM_P2
2024/01/18 00:01:38;;;;;;;1.88;1.75;;;19.50;62.30;;;;;;4966319;28;20201;-81
2024/01/18 00:04:04;;;;;;;1.60;1.42;;;19.60;62.40;;;;;;4969617;28;20206;-81
2024/01/18 00:06:32;;;;;;;2.25;1.40;;;19.50;62.40;;;;;;4966990;28;20214;-80
2024/01/18 00:08:59;;;;;;;1.42;1.33;;;19.50;62.40;;;;;;4967542;28;20269;-79
2024/01/18 00:11:27;;;;;;;1.58;1.30;;;19.50;62.40;;;;;;4967302;28;20438;-79
2024/01/18 00:13:55;;;;;;;1.13;1.00;;;19.50;62.40;;;;;;4968438;28;20208;-79
2024/01/18 00:16:22;;;;;;;1.30;1.20;;;19.50;62.50;;;;;;4967278;28;20835;-81
2024/01/18 00:18:49;;;;;;;1.70;1.33;;;19.50;62.40;;;;;;4966687;28;20975;-81
2024/01/18 00:21:16;;;;;;;1.55;1.45;;;19.50;62.40;;;;;;4966225;28;20205;-80
2024/01/18 00:23:42;;;;;;;1.92;1.55;;;19.50;62.40;;;;;;4964891;28;27981;-78
2024/01/18 00:26:09;;;;;;;1.60;1.42;;;19.50;62.30;;;;;;4967486;28;20231;-79
2024/01/18 00:28:36;;;;;;;2.10;1.25;;;19.50;62.40;;;;;;4965037;28;20310;-79
2024/01/18 00:31:04;;;;;;;1.77;1.58;;;19.50;62.40;;;;;;4963012;28;21196;-81
2024/01/18 00:33:31;;;;;;;2.20;1.52;;;19.50;62.40;;;;;;4966724;28;20214;-81
2024/01/18 00:35:58;;;;;;;1.77;1.50;;;19.50;62.40;;;;;;4966560;28;20209;-81
2024/01/18 00:38:24;;;;;;;1.20;1.10;;;19.50;62.30;;;;;;4967945;28;21353;-80
2024/01/18 00:40:51;;;;;;;1.98;1.50;;;19.50;62.50;;;;;;4964126;28;20228;-82
2024/01/18 00:43:18;;;;;;;1.65;1.30;;;19.50;62.30;;;;;;4967628;28;20215;-81
2024/01/18 00:45:44;;;;;;;1.98;1.48;;;19.50;62.30;;;;;;4968466;28;20201;-81
2024/01/18 00:48:12;;;;;;;2.22;1.30;;;19.50;62.40;;;;;;4965564;28;20615;-81
2024/01/18 00:50:39;;;;;;;1.85;1.40;;;19.50;62.40;;;;;;4967628;28;20196;-80
2024/01/18 00:53:06;;;;;;;2.20;1.40;;;19.50;62.40;;;;;;4968340;28;20205;-81
2024/01/18 00:55:33;;;;;;;1.88;1.67;;;19.50;62.60;;;;;;4967430;28;20805;-80
2024/01/18 00:58:00;;;;;;;1.25;1.10;;;19.50;62.40;;;;;;4967775;28;20851;-81
2024/01/18 01:00:27;;;;;;;1.40;1.30;;;19.40;62.30;;;;;;4965809;28;20291;-80
2024/01/18 01:02:54;;;;;;;1.70;1.20;;;19.50;62.40;;;;;;4967732;28;20213;-80
2024/01/18 01:05:22;;;;;;;1.50;1.40;;;19.40;62.40;;;;;;4966123;28;20216;-81
2024/01/18 01:07:48;;;;;;;1.80;1.48;;;19.40;62.40;;;;;;4970890;28;20208;-81
2024/01/18 01:10:15;;;;;;;1.85;1.40;;;19.40;62.40;;;;;;4969665;28;20589;-80
2024/01/18 01:12:42;;;;;;;1.65;1.35;;;19.40;62.40;;;;;;4966278;28;20300;-80
2024/01/18 01:15:10;;;;;;;1.50;1.40;;;19.40;62.40;;;;;;4967477;28;20763;-81
2024/01/18 01:17:36;;;;;;;1.60;1.30;;;19.50;62.40;;;;;;4966438;28;20885;-80
2024/01/18 01:20:04;;;;;;;2.65;1.67;;;19.40;62.40;;;;;;4970602;28;20228;-81
2024/01/18 01:22:32;;;;;;;1.33;1.08;;;19.40;62.40;;;;;;4964761;28;20205;-80
2024/01/18 01:24:59;;;;;;;1.45;1.35;;;19.40;62.30;;;;;;4970148;28;20221;-80
2024/01/18 01:27:26;;;;;;;1.58;1.30;;;19.40;62.30;;;;;;4968533;28;20205;-80
2024/01/18 01:29:52;;;;;;;1.85;1.33;;;19.40;62.40;;;;;;4964812;28;20227;-80
2024/01/18 01:32:19;;;;;;;1.80;1.38;;;19.40;62.40;;;;;;4970690;28;20200;-80
2024/01/18 01:34:46;;;;;;;1.55;1.45;;;19.40;62.30;;;;;;4973977;28;20197;-81
2024/01/18 01:37:13;;;;;;;1.73;1.63;;;19.40;62.40;;;;;;4972606;28;20233;-81
2024/01/18 01:39:41;;;;;;;1.60;1.40;;;19.40;62.40;;;;;;4968257;28;20587;-81
2024/01/18 01:42:09;;;;;;;1.77;1.50;;;19.40;62.40;;;;;;4966110;28;20216;-80
2024/01/18 01:44:35;;;;;;;2.00;1.45;;;19.40;62.40;;;;;;4964695;28;20717;-80
2024/01/18 01:47:02;;;;;;;1.20;1.08;;;19.40;62.50;;;;;;4959546;28;20205;-82
2024/01/18 01:49:29;;;;;;;1.70;1.45;;;19.40;62.50;;;;;;4967477;28;20206;-80
2024/01/18 01:51:56;;;;;;;1.45;1.08;;;19.40;62.50;;;;;;4962399;28;20231;-81
2024/01/18 01:54:25;;;;;;;1.40;1.20;;;19.40;62.50;;;;;;4969362;28;21111;-81
2024/01/18 01:56:57;;;;;;;1.10;1.00;;;19.40;62.40;;;;;;4965652;28;20251;-81
2024/01/18 01:59:25;;;;;;;2.35;2.15;;;19.40;62.40;;;;;;4966489;28;20805;-80
2024/01/18 02:01:52;;;;;;;1.73;1.55;;;19.40;62.50;;;;;;4962765;28;20206;-80
2024/01/18 02:04:20;;;;;;;2.88;1.63;;;19.40;62.40;;;;;;4966976;28;20208;-81
2024/01/18 02:06:51;;;;;;;1.38;1.10;;;19.40;62.40;;;;;;4966425;28;20201;-80
2024/01/18 02:09:18;;;;;;;1.30;1.17;;;19.40;62.40;;;;;;4966555;28;21017;-80
2024/01/18 02:11:45;;;;;;;2.30;1.40;;;19.40;62.40;;;;;;4965695;28;20205;-80
2024/01/18 02:14:13;;;;;;;1.30;1.00;;;19.40;62.40;;;;;;4965138;28;20197;-81
2024/01/18 02:16:40;;;;;;;1.60;1.50;;;19.30;62.40;;;;;;4960603;28;20573;-82
2024/01/18 02:19:07;;;;;;;1.88;1.20;;;19.30;62.40;;;;;;4964246;28;20207;-81
2024/01/18 02:21:33;;;;;;;1.40;1.25;;;19.40;62.40;;;;;;4961417;28;20217;-81
2024/01/18 02:24:06;;;;;;;1.65;1.42;;;19.40;62.60;;;;;;4964812;28;20706;-80
2024/01/18 02:26:35;;;;;;;2.60;1.20;;;19.40;62.60;;;;;;4964544;28;20205;-80
2024/01/18 02:29:01;;;;;;;1.50;1.40;;;19.40;62.60;;;;;;4967263;28;20556;-80
2024/01/18 02:31:28;;;;;;;1.52;1.10;;;19.30;62.50;;;;;;4964639;28;20237;-80
2024/01/18 02:33:55;;;;;;;1.65;1.10;;;19.30;62.40;;;;;;4963286;28;21064;-81
2024/01/18 02:36:22;;;;;;;1.63;1.52;;;19.40;62.40;;;;;;4963753;28;20211;-80
2024/01/18 02:38:50;;;;;;;1.70;1.30;;;19.30;62.60;;;;;;4963114;28;20212;-80
2024/01/18 02:41:17;;;;;;;1.70;1.48;;;19.30;62.50;;;;;;4966551;28;20259;-81
2024/01/18 02:43:46;;;;;;;1.58;1.40;;;19.30;62.50;;;;;;4962244;28;20201;-80
2024/01/18 02:46:16;;;;;;;1.90;1.40;;;19.30;62.40;;;;;;4962366;28;20201;-80
2024/01/18 02:48:43;;;;;;;1.42;1.30;;;19.30;62.40;;;;;;4964033;28;21102;-80
2024/01/18 02:51:10;;;;;;;1.95;1.50;;;19.30;62.40;;;;;;4964511;28;21107;-81
2024/01/18 02:53:37;;;;;;;1.48;1.30;;;19.30;62.40;;;;;;4964274;28;20193;-82
2024/01/18 02:56:03;;;;;;;1.45;1.25;;;19.30;62.40;;;;;;4965279;28;20671;-80
2024/01/18 02:58:30;;;;;;;1.10;1.00;;;19.30;62.50;;;;;;4965513;28;21204;-82
2024/01/18 03:00:58;;;;;;;1.20;1.10;;;19.30;62.40;;;;;;4966279;28;20224;-80
2024/01/18 03:03:25;;;;;;;1.52;1.30;;;19.30;62.60;;;;;;4966583;28;20208;-80
2024/01/18 03:05:51;;;;;;;2.80;1.50;;;19.30;62.50;;;;;;4971434;28;20254;-81
2024/01/18 03:08:18;;;;;;;1.20;1.10;;;19.30;62.50;;;;;;4969918;28;20209;-80
2024/01/18 03:10:45;;;;;;;1.40;1.10;;;19.30;62.50;;;;;;4970253;28;20572;-81
2024/01/18 03:13:12;;;;;;;1.45;1.10;;;19.30;62.40;;;;;;4969360;28;20652;-80
2024/01/18 03:15:38;;;;;;;1.60;1.50;;;19.30;62.50;;;;;;4965747;28;20197;-80
2024/01/18 03:18:06;;;;;;;1.50;1.30;;;19.30;63.30;;;;;;4968903;28;20209;-80
2024/01/18 03:20:33;;;;;;;1.73;1.30;;;19.30;62.40;;;;;;4947303;28;20662;-81
2024/01/18 03:23:00;;;;;;;1.48;1.30;;;19.30;62.50;;;;;;4968723;28;20233;-80
2024/01/18 03:25:27;;;;;;;1.33;1.00;;;19.30;62.50;;;;;;4968296;28;20209;-80
2024/01/18 03:27:54;;;;;;;1.60;1.17;;;19.30;62.40;;;;;;4960673;28;20208;-81
2024/01/18 03:30:20;;;;;;;1.35;1.25;;;19.30;62.50;;;;;;4964826;28;21219;-80
2024/01/18 03:32:47;;;;;;;2.03;1.20;;;19.30;62.50;;;;;;4967420;28;20207;-80
2024/01/18 03:35:15;;;;;;;1.60;1.35;;;19.30;62.70;;;;;;4969699;28;20277;-81
2024/01/18 03:37:42;;;;;;;1.80;1.20;;;19.30;62.50;;;;;;4967115;28;20210;-81
2024/01/18 03:40:10;;;;;;;1.50;1.13;;;19.20;62.40;;;;;;4968895;28;20197;-81
2024/01/18 03:42:40;;;;;;;1.75;1.40;;;19.30;62.50;;;;;;4967400;28;20284;-81
2024/01/18 03:45:07;;;;;;;1.27;1.10;;;19.30;62.60;;;;;;4968586;28;20197;-81
2024/01/18 03:47:34;;;;;;;1.90;1.60;;;19.20;62.50;;;;;;4965874;28;20651;-81
2024/01/18 03:50:00;;;;;;;2.20;1.57;;;19.20;62.50;;;;;;4968919;28;20209;-81
2024/01/18 03:52:28;;;;;;;1.40;1.30;;;19.20;62.40;;;;;;4969014;28;20460;-81
2024/01/18 03:54:55;;;;;;;2.03;1.40;;;19.30;62.60;;;;;;4969727;28;20208;-80
2024/01/18 03:57:22;;;;;;;1.35;1.25;;;19.20;62.30;;;;;;4968609;28;20208;-80
2024/01/18 03:59:49;;;;;;;1.45;1.35;;;19.20;62.60;;;;;;4970877;28;20637;-81
2024/01/18 04:02:16;;;;;;;1.30;1.20;;;19.20;62.60;;;;;;4966293;28;20219;-81
2024/01/18 04:04:42;;;;;;;1.77;1.42;;;19.20;62.60;;;;;;4975030;28;20681;-81
2024/01/18 04:07:09;;;;;;;1.58;1.15;;;19.20;62.40;;;;;;4970543;28;20205;-81
2024/01/18 04:09:37;;;;;;;1.60;1.30;;;19.20;62.40;;;;;;4970522;28;20201;-80
2024/01/18 04:12:05;;;;;;;1.40;1.20;;;19.20;62.60;;;;;;4968525;28;20224;-81
2024/01/18 04:14:31;;;;;;;1.20;1.02;;;19.20;62.40;;;;;;4970777;28;20840;-82
2024/01/18 04:16:58;;;;;;;1.58;1.33;;;19.20;62.40;;;;;;4962899;28;20208;-80
2024/01/18 04:19:25;;;;;;;1.65;1.50;;;19.30;62.50;;;;;;4972189;28;20205;-80
2024/01/18 04:21:52;;;;;;;1.30;1.13;;;19.20;62.50;;;;;;4968500;28;20228;-81
2024/01/18 04:24:18;;;;;;;1.77;1.50;;;19.20;62.60;;;;;;4975780;28;20213;-80
2024/01/18 04:26:49;;;;;;;1.48;1.35;;;19.20;62.50;;;;;;4970066;28;20699;-80
2024/01/18 04:29:16;;;;;;;2.30;1.20;;;19.20;62.50;;;;;;4970901;28;20209;-81
2024/01/18 04:31:43;;;;;;;1.50;1.30;;;19.20;62.70;;;;;;4970117;28;20189;-80
2024/01/18 04:34:09;;;;;;;1.20;1.00;;;19.20;62.50;;;;;;4969722;28;20208;-81
2024/01/18 04:36:36;;;;;;;1.50;1.20;;;19.20;62.70;;;;;;4975196;28;20208;-80
2024/01/18 04:39:03;;;;;;;1.75;1.20;;;19.20;62.70;;;;;;4976409;28;20200;-80
2024/01/18 04:41:29;;;;;;;1.20;1.10;;;19.20;62.40;;;;;;4967868;28;20225;-81
2024/01/18 04:43:57;;;;;;;1.55;1.30;;;19.20;62.60;;;;;;4970761;28;20205;-81
2024/01/18 04:46:24;;;;;;;1.63;1.33;;;19.20;62.40;;;;;;4963427;28;22294;-81
2024/01/18 04:48:51;;;;;;;1.30;1.20;;;19.20;62.50;;;;;;4970825;28;20213;-81
2024/01/18 04:51:19;;;;;;;1.80;1.20;;;19.20;62.60;;;;;;4966906;28;20197;-80
2024/01/18 04:53:46;;;;;;;1.30;1.20;;;19.20;63.30;;;;;;4968061;28;20580;-80
2024/01/18 04:56:13;;;;;;;1.30;1.20;;;19.20;62.50;;;;;;4967180;28;20224;-81
2024/01/18 04:58:39;;;;;;;1.85;1.75;;;19.20;62.60;;;;;;4967582;28;20205;-80
2024/01/18 05:01:07;;;;;;;1.52;1.10;;;19.20;62.60;;;;;;4967476;28;20217;-81
2024/01/18 05:03:34;;;;;;;1.45;1.15;;;19.20;62.50;;;;;;4966063;28;20205;-81
2024/01/18 05:06:01;;;;;;;1.40;1.20;;;19.20;62.40;;;;;;4965271;28;20209;-81
2024/01/18 05:08:28;;;;;;;1.58;1.00;;;19.20;62.50;;;;;;4961884;28;20721;-81
2024/01/18 05:10:55;;;;;;;1.42;1.08;;;19.20;62.50;;;;;;4967399;28;20206;-82
2024/01/18 05:13:22;;;;;;;1.50;1.40;;;19.20;62.60;;;;;;4967579;28;20202;-82
2024/01/18 05:15:49;;;;;;;1.63;1.30;;;19.20;62.50;;;;;;4962697;28;20661;-81
2024/01/18 05:18:17;;;;;;;1.65;1.45;;;19.20;62.50;;;;;;4964297;28;20212;-82
2024/01/18 05:20:44;;;;;;;1.30;1.20;;;19.20;62.60;;;;;;4965313;28;20232;-81
2024/01/18 05:23:10;;;;;;;1.50;1.17;;;19.20;62.60;;;;;;4966497;28;20736;-81
2024/01/18 05:25:37;;;;;;;1.33;1.20;;;19.20;62.50;;;;;;4965045;28;20216;-81
2024/01/18 05:28:04;;;;;;;2.72;1.20;;;19.20;62.60;;;;;;4965599;28;20209;-81
2024/01/18 05:30:31;;;;;;;1.98;1.10;;;19.20;62.50;;;;;;4965235;28;20660;-81
2024/01/18 05:32:58;;;;;;;1.60;1.17;;;19.20;62.60;;;;;;4965821;28;20197;-81
2024/01/18 05:35:26;;;;;;;2.00;1.40;;;19.20;62.70;;;;;;4968514;28;20218;-80
2024/01/18 05:37:53;;;;;;;1.25;1.15;;;19.20;62.70;;;;;;4965946;28;20213;-80
2024/01/18 05:40:21;;;;;;;1.45;1.35;;;19.20;62.50;;;;;;4967309;28;20771;-80
2024/01/18 05:42:48;;;;;;;1.40;1.30;;;19.20;62.50;;;;;;4966124;28;20791;-81
2024/01/18 05:45:15;;;;;;;1.17;1.08;;;19.10;62.50;;;;;;4967027;28;20201;-81
2024/01/18 05:47:42;;;;;;;1.42;1.20;;;19.20;62.70;;;;;;4965896;28;22868;-81
2024/01/18 05:50:09;;;;;;;1.30;1.10;;;19.10;62.60;;;;;;4963202;28;20205;-81
2024/01/18 05:52:38;;;;;;;1.48;1.20;;;19.10;62.50;;;;;;4966658;28;20201;-81
2024/01/18 05:55:05;;;;;;;1.50;1.40;;;19.10;62.60;;;;;;4968669;28;20206;-82
2024/01/18 05:57:32;;;;;;;1.50;1.38;;;19.10;62.50;;;;;;4966788;28;20227;-81
2024/01/18 05:59:59;;;;;;;2.22;1.25;;;19.10;62.60;;;;;;4969196;28;20197;-81
2024/01/18 06:02:26;;;;;;;1.70;1.60;;;19.10;62.60;;;;;;4966247;28;20225;-81
2024/01/18 06:04:53;;;;;;;1.27;1.17;;;19.10;62.50;;;;;;4971398;28;20201;-81
2024/01/18 06:07:19;;;;;;;2.60;1.30;;;19.10;62.60;;;;;;4968840;28;20518;-81
2024/01/18 06:09:48;;;;;;;1.70;1.52;;;19.10;62.50;;;;;;4967276;28;20253;-81
2024/01/18 06:12:14;;;;;;;1.30;1.10;;;19.10;62.50;;;;;;4968374;28;20206;-81
2024/01/18 06:14:41;;;;;;;1.30;1.17;;;19.10;62.60;;;;;;4967438;28;20213;-82
2024/01/18 06:17:08;;;;;;;1.55;1.27;;;19.10;62.50;;;;;;4965023;28;20209;-82
2024/01/18 06:19:34;;;;;;;1.40;1.30;;;19.10;62.60;;;;;;4968018;28;20207;-81
2024/01/18 06:22:01;;;;;;;1.23;1.13;;;19.20;62.50;;;;;;4968470;28;20226;-81
2024/01/18 06:24:28;;;;;;;1.45;1.08;;;19.10;62.50;;;;;;4969715;28;20247;-81
2024/01/18 06:26:56;;;;;;;1.52;1.30;;;19.10;62.60;;;;;;4969671;28;20613;-81
2024/01/18 06:29:26;;;;;;;1.40;1.10;;;19.10;62.60;;;;;;4970090;28;20200;-82
2024/01/18 06:31:53;;;;;;;1.25;1.10;;;19.10;62.60;;;;;;4966584;28;20201;-82
2024/01/18 06:34:20;;;;;;;2.50;1.23;;;19.10;62.50;;;;;;4970277;28;20211;-81
2024/01/18 06:36:46;;;;;;;2.00;1.35;;;19.10;62.50;;;;;;4966748;28;20216;-80
2024/01/18 06:39:13;;;;;;;1.60;1.10;;;19.10;62.70;;;;;;4967970;28;20215;-81
2024/01/18 06:41:40;;;;;;;1.52;1.38;;;19.10;62.50;;;;;;4968139;28;20289;-81
2024/01/18 06:44:08;;;;;;;1.42;1.23;;;19.10;62.60;;;;;;4968448;28;20211;-81
2024/01/18 06:46:35;;;;;;;1.40;0.93;;;19.10;62.50;;;;;;4971567;28;20208;-81
2024/01/18 06:49:02;;;;;;;1.60;1.30;;;19.10;62.50;;;;;;4968944;28;20205;-81
2024/01/18 06:51:29;;;;;;;1.40;1.30;;;19.10;62.60;;;;;;4971141;28;20205;-82
2024/01/18 06:53:56;;;;;;;1.20;1.10;;;19.10;62.60;;;;;;4967733;28;20201;-81
2024/01/18 06:56:23;;;;;;;1.20;0.95;;;19.10;62.60;;;;;;4974001;28;20209;-79
2024/01/18 06:58:50;;;;;;;1.30;1.20;;;19.10;62.70;;;;;;4969365;28;20870;-81
2024/01/18 07:01:18;;;;;;;1.30;1.10;;;19.10;62.50;;;;;;4971625;28;20225;-81
2024/01/18 07:03:44;;;;;;;1.25;1.15;;;19.10;62.50;;;;;;4970405;28;20211;-80
2024/01/18 07:06:11;;;;;;;1.65;1.55;;;19.10;62.50;;;;;;4967740;28;20201;-81
2024/01/18 07:08:38;;;;;;;1.60;1.10;;;19.10;62.50;;;;;;4967876;28;20568;-80
2024/01/18 07:11:05;;;;;;;1.10;1.00;;;19.10;62.60;;;;;;4963819;28;20208;-82
2024/01/18 07:13:32;;;;;;;1.45;1.20;;;19.10;62.60;;;;;;4967781;28;20212;-82
2024/01/18 07:15:59;;;;;;;1.40;1.20;;;19.10;62.50;;;;;;4966751;28;20745;-81
2024/01/18 07:18:27;;;;;;;1.30;1.20;;;19.10;62.60;;;;;;4963147;28;20264;-84
2024/01/18 07:20:54;;;;;;;1.38;1.10;;;19.10;62.60;;;;;;4964751;28;20211;-82
2024/01/18 07:23:21;;;;;;;1.50;1.10;;;19.10;62.50;;;;;;4966082;28;20223;-81
2024/01/18 07:25:47;;;;;;;1.40;1.25;;;19.10;62.70;;;;;;4967201;28;20209;-82
2024/01/18 07:28:14;;;;;;;1.40;1.10;;;19.10;62.50;;;;;;4964820;28;20209;-81
2024/01/18 07:30:41;;;;;;;1.45;1.25;;;19.10;62.50;;;;;;4963848;28;20661;-82
2024/01/18 07:33:08;;;;;;;2.08;1.10;;;19.10;62.40;;;;;;4968464;28;20204;-81
2024/01/18 07:35:36;;;;;;;1.10;1.00;;;19.10;62.70;;;;;;4966713;28;20349;-83
2024/01/18 07:38:03;;;;;;;1.58;1.40;;;19.00;62.50;;;;;;4967261;28;20205;-81
2024/01/18 07:40:30;;;;;;;1.40;1.10;;;19.10;62.60;;;;;;4966743;28;20752;-81
2024/01/18 07:42:57;;;;;;;2.20;1.42;;;19.10;63.50;;;;;;4962079;28;20213;-83
2024/01/18 07:45:24;;;;;;;1.42;1.20;;;19.10;62.60;;;;;;4960124;28;20222;-82
2024/01/18 07:47:50;;;;;;;1.20;0.98;;;19.10;62.70;;;;;;4971146;28;20758;-82
2024/01/18 07:50:17;;;;;;;1.75;1.38;;;19.00;62.50;;;;;;4968202;28;21037;-82
2024/01/18 07:52:45;;;;;;;1.42;1.10;;;19.10;62.60;;;;;;4970333;28;20212;-82
2024/01/18 07:55:12;;;;;;;1.60;1.13;;;19.10;62.60;;;;;;4968794;28;21173;-82
2024/01/18 07:57:39;;;;;;;1.15;0.90;;;19.10;62.60;;;;;;4967744;28;20208;-82
2024/01/18 08:00:08;;;;;;;1.20;1.08;;;19.10;62.60;;;;;;4969475;28;20193;-82
2024/01/18 08:02:35;;;;;;;1.25;1.00;;;19.10;62.70;;;;;;4970352;28;20224;-82
2024/01/18 08:05:01;;;;;;;1.90;1.38;;;19.10;62.50;;;;;;4969669;28;20561;-82
2024/01/18 08:07:28;;;;;;;1.10;1.00;;;19.10;62.60;;;;;;4966995;28;20228;-82
2024/01/18 08:09:56;;;;;;;1.35;1.25;;;19.10;62.70;;;;;;4964211;28;20209;-81
2024/01/18 08:12:23;;;;;;;1.20;1.00;;;19.10;62.60;;;;;;4969238;28;20239;-81
2024/01/18 08:14:50;;;;;;;1.30;1.05;;;19.10;62.80;;;;;;4967462;28;20799;-81
2024/01/18 08:17:17;;;;;;;1.30;1.00;;;19.10;62.70;;;;;;4966159;28;20723;-81
2024/01/18 08:19:44;;;;;;;2.08;1.20;;;19.10;62.70;;;;;;4970181;28;20229;-81
2024/01/18 08:22:11;;;;;;;2.75;1.27;;;19.10;62.80;;;;;;4967417;28;20243;-82
2024/01/18 08:24:39;;;;;;;1.90;1.25;;;19.10;62.80;;;;;;4968993;28;20266;-82
2024/01/18 08:27:07;;;;;;;1.50;1.35;;;19.10;62.80;;;;;;4961656;28;20820;-83
2024/01/18 08:29:34;;;;;;;1.30;1.20;;;19.10;63.20;;;;;;4961971;28;20201;-82
2024/01/18 08:32:02;;;;;;;1.33;1.02;;;19.10;62.90;;;;;;4962848;28;20233;-81
2024/01/18 08:34:28;;;;;;;1.42;1.00;;;19.10;63.10;;;;;;4966748;28;20259;-83
2024/01/18 08:36:55;;;;;;;1.73;1.27;;;19.10;62.70;;;;;;4963719;28;20200;-82
2024/01/18 08:39:22;;;;;;;1.50;1.10;;;19.10;62.90;;;;;;4960880;28;20205;-81
2024/01/18 08:41:49;;;;;;;1.60;1.30;;;19.10;63.00;;;;;;4966460;28;20228;-83
2024/01/18 08:44:17;;;;;;;1.60;1.50;;;19.10;62.90;;;;;;4968718;28;21148;-83
2024/01/18 08:46:44;;;;;;;1.30;1.00;;;19.10;62.70;;;;;;4964660;28;20580;-84
2024/01/18 08:49:10;;;;;;;1.40;1.30;;;19.10;62.80;;;;;;4966498;28;20682;-81
2024/01/18 08:51:37;;;;;;;1.30;1.00;;;19.10;62.90;;;;;;4966067;28;20211;-82
2024/01/18 08:54:03;;;;;;;1.40;1.25;;;19.10;62.80;;;;;;4964254;28;20209;-82
2024/01/18 08:56:30;;;;;;;1.20;1.00;;;19.10;63.20;;;;;;4964347;28;20197;-82
2024/01/18 08:58:57;;;;;;;1.80;1.50;;;19.10;63.40;;;;;;4964647;28;20197;-85
2024/01/18 09:01:25;;;;;;;1.88;1.05;;;19.10;64.60;;;;;;4963630;28;20887;-82
2024/01/18 09:03:51;;;;;;;1.40;1.25;;;19.10;64.10;;;;;;4962099;28;20245;-82
2024/01/18 09:06:18;;;;;;;1.20;1.05;;;19.10;64.00;;;;;;4968735;28;20205;-86
2024/01/18 09:08:45;;;;;;;2.88;1.00;;;19.10;64.20;;;;;;4970908;28;20786;-85
2024/01/18 09:11:13;;;;;;;2.03;1.60;;;19.20;64.70;;;;;;4966318;28;20565;-85
2024/01/18 09:13:40;;;;;;;1.30;1.20;;;19.30;64.70;;;;;;4969164;28;20211;-81
2024/01/18 09:16:07;;;;;;;1.20;1.10;;;19.30;64.60;;;;;;4976818;28;20213;-83
2024/01/18 09:18:35;;;;;;;1.30;1.20;;;19.30;64.80;;;;;;4968650;28;20205;-82
2024/01/18 09:21:02;;;;;;;1.20;1.10;;;19.40;65.10;;;;;;4970034;28;20193;-81
2024/01/18 09:23:29;;;;;;;1.02;0.93;;;19.40;65.20;;;;;;4969295;28;20315;-81
2024/01/18 09:25:55;;;;;;;1.63;1.42;;;19.40;65.10;;;;;;4968890;28;20695;-81
2024/01/18 09:28:22;;;;;;;1.50;1.20;;;19.40;65.30;;;;;;4967045;28;20205;-82
2024/01/18 09:30:49;;;;;;;1.60;1.23;;;19.50;65.10;;;;;;4968201;28;20201;-81
2024/01/18 09:33:16;;;;;;;1.30;1.20;;;19.50;65.30;;;;;;4969335;28;20217;-81
2024/01/18 09:35:44;;;;;;;1.42;1.30;;;19.50;65.10;;;;;;4968361;28;20664;-82
2024/01/18 09:38:11;;;;;;;1.35;1.15;;;19.50;65.00;;;;;;4971349;28;20775;-81
2024/01/18 09:40:39;;;;;;;1.27;1.08;;;19.50;64.90;;;;;;4965172;28;20208;-82
2024/01/18 09:43:09;;;;;;;2.47;1.35;;;19.60;64.80;;;;;;4967925;28;20232;-81
2024/01/18 09:45:40;;;;;;;2.03;0.95;;;19.60;65.10;;;;;;4969169;28;20201;-82
2024/01/18 09:48:08;;;;;;;2.80;1.45;;;19.60;64.70;;;;;;4969529;28;20741;-82
2024/01/18 09:50:40;;;;;;;1.70;1.57;;;19.60;64.90;;;;;;4969269;28;20211;-83
2024/01/18 09:53:08;;;;;;;1.33;1.00;;;19.60;64.60;;;;;;4970281;28;20492;-82
2024/01/18 09:55:35;;;;;;;1.45;1.23;;;19.70;64.80;;;;;;4964179;28;20197;-82
2024/01/18 09:58:03;;;;;;;1.38;1.27;;;19.60;64.80;;;;;;4968965;28;20208;-83
2024/01/18 10:00:33;;;;;;;2.75;1.40;;;19.60;64.70;;;;;;4969896;28;20581;-82
2024/01/18 10:03:00;;;;;;;1.50;1.35;;;19.70;64.60;;;;;;4964637;28;20635;-83
2024/01/18 10:05:27;;;;;;;1.17;1.00;;;19.70;64.60;;;;;;4970124;28;24532;-81
2024/01/18 10:07:53;;;;;;;1.52;1.33;;;19.70;64.70;;;;;;4968585;28;20243;-80
2024/01/18 10:10:22;;;;;;;1.70;1.60;;;19.70;64.70;;;;;;4962195;28;20205;-81
2024/01/18 10:12:48;;;;;;;1.70;1.30;;;19.70;64.80;;;;;;4967232;28;20204;-81
2024/01/18 10:15:31;;;;;;;4.55;1.50;;;19.60;65.60;;;;;;4966814;28;20201;-81
2024/01/18 10:17:57;;;;;;;2.55;1.50;;;19.70;65.20;;;;;;4962580;28;20239;-83
2024/01/18 10:20:26;;;;;;;3.10;1.30;;;19.70;65.00;;;;;;4974698;28;20201;-84
2024/01/18 10:22:54;;;;;;;4.07;1.55;;;19.70;65.20;;;;;;4973204;28;20244;-83
2024/01/18 10:25:24;;;;;;;1.35;1.17;;;19.70;65.30;;;;;;4971340;28;20220;-84
2024/01/18 10:27:52;;;;;;;5.15;1.30;;;19.80;65.60;;;;;;4972495;28;20197;-83
2024/01/18 10:30:21;;;;;;;3.47;1.42;;;19.80;65.60;;;;;;4968321;28;20312;-84
2024/01/18 10:32:48;;;;;;;1.63;1.10;;;19.80;65.70;;;;;;4967135;28;20193;-84
2024/01/18 10:35:20;;;;;;;2.35;1.35;;;19.90;65.90;;;;;;4968214;28;20212;-84
2024/01/18 10:37:48;;;;;;;1.70;1.17;;;19.90;66.00;;;;;;4966089;28;20623;-84
2024/01/18 10:40:19;;;;;;;1.42;1.13;;;19.90;66.00;;;;;;4969212;28;20213;-85
2024/01/18 10:42:48;;;;;;;1.30;1.15;;;20.00;65.90;;;;;;4965819;28;20920;-84
2024/01/18 10:45:17;;;;;;;2.75;1.45;;;20.00;66.10;;;;;;4976213;28;20212;-84
2024/01/18 10:47:44;;;;;;;1.55;1.25;;;20.10;66.20;;;;;;4971405;28;25650;-84
2024/01/18 10:50:11;;;;;;;1.10;0.93;;;20.10;65.90;;;;;;4972102;28;20327;-86
2024/01/18 10:52:38;;;;;;;1.75;1.10;;;20.10;66.00;;;;;;4966163;28;20202;-85
2024/01/18 10:55:09;;;;;;;1.80;1.38;;;20.20;66.10;;;;;;4966150;28;20205;-84
2024/01/18 10:57:36;;;;;;;1.80;1.33;;;20.20;66.20;;;;;;4968793;28;20205;-84
2024/01/18 11:00:07;;;;;;;1.40;1.20;;;20.20;66.10;;;;;;4966528;28;20205;-84
2024/01/18 11:02:39;;;;;;;1.58;1.38;;;20.20;66.00;;;;;;4960042;28;20232;-83
2024/01/18 11:05:09;;;;;;;1.83;1.52;;;20.30;66.10;;;;;;4967266;28;20202;-85
2024/01/18 11:07:37;;;;;;;2.45;1.02;;;20.30;66.00;;;;;;4963280;28;20254;-84
2024/01/18 11:10:06;;;;;;;1.25;1.15;;;20.30;65.90;;;;;;4965642;28;21350;-86
2024/01/18 11:12:34;;;;;;;1.40;1.30;;;20.40;66.00;;;;;;4963781;28;20216;-86
2024/01/18 11:15:03;;;;;;;8.00;1.38;;;20.40;65.80;;;;;;4965781;28;20212;-85
2024/01/18 11:17:31;;;;;;;1.10;1.00;;;20.40;65.90;;;;;;4964969;28;20209;-85
2024/01/18 11:20:01;;;;;;;1.27;1.10;;;20.40;65.90;;;;;;4966767;28;20591;-84
2024/01/18 11:22:30;;;;;;;2.40;1.30;;;20.50;65.90;;;;;;4967784;28;20194;-85
2024/01/18 11:25:07;;;;;;;1.23;1.10;;;20.50;66.70;;;;;;4971998;28;20214;-83
2024/01/18 11:27:38;;;;;;;1.63;1.17;;;20.50;66.00;;;;;;4966268;28;20208;-82
2024/01/18 11:30:07;;;;;;;3.15;1.30;;;20.60;66.00;;;;;;4960981;28;20209;-83
2024/01/18 11:32:35;;;;;;;1.65;1.05;;;20.60;65.90;;;;;;4966067;28;20584;-82
2024/01/18 11:35:10;;;;;;;1.50;1.00;;;20.60;66.10;;;;;;4967595;28;20319;-84
2024/01/18 11:37:37;;;;;;;1.10;1.00;;;20.60;66.80;;;;;;4968479;28;21344;-84
2024/01/18 11:40:07;;;;;;;1.52;1.00;;;20.60;66.00;;;;;;4961524;28;20208;-86
2024/01/18 11:42:34;;;;;;;1.30;1.10;;;20.60;66.00;;;;;;4962747;28;20201;-86
2024/01/18 11:45:04;;;;;;;2.55;1.30;;;20.70;66.20;;;;;;4968541;28;20235;-87
2024/01/18 11:47:32;;;;;;;1.20;1.10;;;20.70;66.10;;;;;;4961093;28;22511;-86
2024/01/18 11:50:05;;;;;;;1.30;1.10;;;20.70;66.30;;;;;;4965551;28;20205;-86
2024/01/18 11:52:33;;;;;;;1.37;0.90;;;20.70;66.00;;;;;;4970015;28;20217;-86
2024/01/18 11:55:00;;;;;;;1.10;1.00;;;20.80;66.20;;;;;;4960145;28;20457;-87
2024/01/18 11:57:27;;;;;;;1.15;0.90;;;20.80;66.10;;;;;;4969607;28;20205;-86
2024/01/18 11:59:55;;;;;;;1.10;0.90;;;20.80;66.10;;;;;;4965682;28;21400;-86
2024/01/18 12:02:22;;;;;;;1.20;1.10;;;20.80;66.00;;;;;;4970101;28;20201;-85
2024/01/18 12:04:49;;;;;;;1.23;1.13;;;20.90;66.10;;;;;;4972226;28;20225;-84
2024/01/18 12:07:18;;;;;;;1.38;1.20;;;20.90;66.00;;;;;;4967521;28;20471;-86
2024/01/18 12:09:45;;;;;;;2.47;1.30;;;20.80;65.10;;;;;;4970335;28;20205;-84
2024/01/18 12:12:13;;;;;;;1.30;1.10;;;20.80;65.00;;;;;;4966229;28;21090;-86
2024/01/18 12:14:41;;;;;;;2.27;0.90;;;20.90;65.10;;;;;;4973386;28;20194;-85
2024/01/18 12:17:09;;;;;;;1.60;1.10;;;20.90;65.10;;;;;;4965404;28;20478;-85
2024/01/18 12:19:37;;;;;;;5.10;1.50;;;20.90;64.60;;;;;;4969712;28;20517;-86
2024/01/18 12:22:08;;;;;;;1.10;0.90;;;20.90;65.10;;;;;;4967335;28;20205;-85
2024/01/18 12:24:36;;;;;;;2.72;1.35;;;20.90;65.10;;;;;;4968838;28;20232;-86
2024/01/18 12:27:04;;;;;;;2.05;1.20;;;20.90;65.00;;;;;;4971750;28;20565;-86
2024/01/18 12:29:32;;;;;;;1.20;1.10;;;21.00;65.10;;;;;;4972144;28;20213;-85
2024/01/18 12:32:00;;;;;;;2.03;1.50;;;21.00;65.00;;;;;;4964513;28;20209;-85
2024/01/18 12:34:28;;;;;;;1.75;1.30;;;21.00;65.30;;;;;;4971116;28;20205;-84
2024/01/18 12:36:55;;;;;;;2.10;1.10;;;21.00;65.10;;;;;;4971552;28;20205;-86
2024/01/18 12:39:22;;;;;;;1.30;0.93;;;21.00;65.10;;;;;;4972656;28;20209;-84
2024/01/18 12:41:53;;;;;;;1.17;0.88;;;21.00;65.10;;;;;;4967965;28;20577;-85
2024/01/18 12:44:21;;;;;;;1.13;1.03;;;21.00;65.20;;;;;;4965914;28;20217;-85
2024/01/18 12:46:49;;;;;;;1.30;1.00;;;21.00;65.10;;;;;;4967055;28;20469;-87
2024/01/18 12:49:16;;;;;;;1.58;1.10;;;21.00;65.20;;;;;;4964723;28;20205;-85